Station Historical Data
Daily Summary for December 5, 2017 Units:  English    Metric   Both
« Previous Day
Next Day »
Daily Weekly Monthly Yearly Custom
  High: Low: Average:
Temperature: 61.3 °F 39.1 °F 48.2 °F
Dew Point: 40.5 °F 10.9 °F 26.7 °F
Humidity: 73 % 20 % 45 %
Wind Speed: 24.0 mph 0.0 mph 2.4 mph
Wind Gust: 34.0 mph - -
Wind:- - East
Pressure: 30.35 in 30.24 in -
Precipitation: 0.00 in    
Historical Graphs
 
 
Tabular Data for December 5, 2017
Time Temperature Dew Point Pressure Wind Wind Speed Wind Gust Humidity Rainfall Rate (Hourly) solar
00:05 40.8 °F 21.1 °F 30.34 in East 1.0 mph 17.0 mph 45 % 0.00 in 0.00 W/m2
00:10 40.9 °F 20.7 °F 30.34 in ENE 10.0 mph 11.0 mph 44 % 0.00 in 0.00 W/m2
00:15 41.2 °F 22.5 °F 30.33 in Calm   13.0 mph 47 % 0.00 in 0.00 W/m2
00:20 41.3 °F 22.6 °F 30.33 in Calm   11.0 mph 47 % 0.00 in 0.00 W/m2
00:25 41.4 °F 21.1 °F 30.33 in Calm   6.0 mph 44 % 0.00 in 0.00 W/m2
00:30 41.4 °F 20.6 °F 30.33 in Calm   6.0 mph 43 % 0.00 in 0.00 W/m2
00:35 41.3 °F 21.0 °F 30.33 in ENE 1.0 mph 8.0 mph 44 % 0.00 in 0.00 W/m2
00:40 41.3 °F 21.6 °F 30.33 in NE 4.0 mph 6.0 mph 45 % 0.00 in 0.00 W/m2
00:45 41.3 °F 22.1 °F 30.33 in Calm   10.0 mph 46 % 0.00 in 0.00 W/m2
00:50 41.1 °F 21.9 °F 30.33 in East 2.0 mph 8.0 mph 46 % 0.00 in 0.00 W/m2
00:55 40.9 °F 22.7 °F 30.33 in ENE 2.0 mph 13.0 mph 48 % 0.00 in 0.00 W/m2
01:00 40.6 °F 21.5 °F 30.33 in ENE 7.0 mph 10.0 mph 46 % 0.00 in 0.00 W/m2
01:05 40.3 °F 22.2 °F 30.33 in Calm     48 % 0.00 in 0.00 W/m2
01:11 40.1 °F 20.5 °F 30.32 in Calm   2.0 mph 45 % 0.00 in 0.00 W/m2
01:16 40.0 °F 22.4 °F 30.32 in Calm   7.0 mph 49 % 0.00 in 0.00 W/m2
01:21 39.9 °F 22.8 °F 30.32 in Calm   5.0 mph 50 % 0.00 in 0.00 W/m2
01:26 39.7 °F 21.6 °F 30.32 in East 4.0 mph 4.0 mph 48 % 0.00 in 0.00 W/m2
01:31 39.5 °F 22.9 °F 30.32 in Calm     51 % 0.00 in 0.00 W/m2
01:36 39.2 °F 21.2 °F 30.33 in Calm     48 % 0.00 in 0.00 W/m2
01:41 39.1 °F 20.6 °F 30.33 in Calm     47 % 0.00 in 0.00 W/m2
01:46 39.1 °F 17.4 °F 30.34 in Calm     41 % 0.00 in 0.00 W/m2
01:51 39.2 °F 18.6 °F 30.34 in Calm     43 % 0.00 in 0.00 W/m2
01:56 39.3 °F 19.8 °F 30.34 in Calm     45 % 0.00 in 0.00 W/m2
02:01 39.5 °F 17.2 °F 30.35 in Calm     40 % 0.00 in 0.00 W/m2
02:06 39.8 °F 17.5 °F 30.35 in Calm     40 % 0.00 in 0.00 W/m2
02:11 39.9 °F 18.7 °F 30.34 in Calm     42 % 0.00 in 0.00 W/m2
02:16 39.9 °F 19.2 °F 30.34 in Calm     43 % 0.00 in 0.00 W/m2
02:21 39.8 °F 19.1 °F 30.34 in Calm     43 % 0.00 in 0.00 W/m2
02:26 39.7 °F 20.1 °F 30.34 in Calm     45 % 0.00 in 0.00 W/m2
02:31 39.5 °F 19.9 °F 30.34 in NE 2.0 mph 3.0 mph 45 % 0.00 in 0.00 W/m2
02:36 39.5 °F 19.9 °F 30.34 in ENE 3.0 mph 4.0 mph 45 % 0.00 in 0.00 W/m2
02:41 39.5 °F 21.0 °F 30.34 in East 2.0 mph 5.0 mph 47 % 0.00 in 0.00 W/m2
02:42 39.4 °F 20.4 °F 30.34 in East 5.0 mph 6.0 mph 46 % 0.00 in 0.00 W/m2
02:47 39.5 °F 19.9 °F 30.34 in East 4.0 mph 5.0 mph 45 % 0.00 in 0.00 W/m2
02:52 39.6 °F 21.5 °F 30.33 in East 1.0 mph 5.0 mph 48 % 0.00 in 0.00 W/m2
02:57 39.7 °F 20.6 °F 30.33 in Calm   7.0 mph 46 % 0.00 in 0.00 W/m2
03:02 39.8 °F 20.7 °F 30.33 in Calm   11.0 mph 46 % 0.00 in 0.00 W/m2
03:08 40.1 °F 21.0 °F 30.33 in East 2.0 mph 7.0 mph 46 % 0.00 in 0.00 W/m2
03:13 40.3 °F 20.7 °F 30.33 in East 4.0 mph 7.0 mph 45 % 0.00 in 0.00 W/m2
03:18 40.4 °F 20.2 °F 30.32 in East 5.0 mph 11.0 mph 44 % 0.00 in 0.00 W/m2
03:23 40.4 °F 19.7 °F 30.32 in East 13.0 mph 13.0 mph 43 % 0.00 in 0.00 W/m2
03:28 40.8 °F 19.5 °F 30.31 in Calm   18.0 mph 42 % 0.00 in 0.00 W/m2
03:33 41.3 °F 21.0 °F 30.31 in East 18.0 mph 25.0 mph 44 % 0.00 in 0.00 W/m2
03:38 42.2 °F 19.6 °F 30.31 in East 9.0 mph 28.0 mph 40 % 0.00 in 0.00 W/m2
03:43 43.4 °F 18.2 °F 30.31 in ESE 16.0 mph 32.0 mph 36 % 0.00 in 0.00 W/m2
03:48 44.7 °F 19.4 °F 30.31 in East 9.0 mph 28.0 mph 36 % 0.00 in 0.00 W/m2
03:53 45.6 °F 18.2 °F 30.31 in ESE 8.0 mph 34.0 mph 33 % 0.00 in 0.00 W/m2
03:58 46.4 °F 18.2 °F 30.31 in SSE 7.0 mph 31.0 mph 32 % 0.00 in 0.00 W/m2
04:03 47.1 °F 18.0 °F 30.31 in SE 21.0 mph 33.0 mph 31 % 0.00 in 0.00 W/m2
04:08 47.4 °F 18.3 °F 30.31 in East 6.0 mph 29.0 mph 31 % 0.00 in 0.00 W/m2
04:13 47.8 °F 18.6 °F 30.31 in East 12.0 mph 25.0 mph 31 % 0.00 in 0.00 W/m2
04:24 48.0 °F 19.6 °F 30.32 in East 10.0 mph 24.0 mph 32 % 0.00 in 0.00 W/m2
04:29 47.9 °F 18.7 °F 30.32 in ENE 8.0 mph 25.0 mph 31 % 0.00 in 0.00 W/m2
04:34 47.9 °F 17.2 °F 30.31 in ENE 24.0 mph 24.0 mph 29 % 0.00 in 0.00 W/m2
04:39 48.2 °F 19.7 °F 30.32 in ENE 12.0 mph 22.0 mph 32 % 0.00 in 0.00 W/m2
04:44 48.2 °F 17.5 °F 30.32 in Calm   23.0 mph 29 % 0.00 in 0.00 W/m2
04:49 48.4 °F 16.8 °F 30.32 in ENE 11.0 mph 21.0 mph 28 % 0.00 in 0.00 W/m2
04:54 48.5 °F 17.7 °F 30.32 in East 9.0 mph 22.0 mph 29 % 0.00 in 0.00 W/m2
04:59 48.6 °F 15.3 °F 30.32 in East 14.0 mph 23.0 mph 26 % 0.00 in 0.00 W/m2
05:04 48.8 °F 17.2 °F 30.31 in ENE 4.0 mph 18.0 mph 28 % 0.00 in 0.00 W/m2
05:09 49.0 °F 17.3 °F 30.31 in ENE 19.0 mph 19.0 mph 28 % 0.00 in 0.00 W/m2
05:14 49.5 °F 19.4 °F 30.31 in ENE 13.0 mph 20.0 mph 30 % 0.00 in 0.00 W/m2
05:19 49.6 °F 17.0 °F 30.31 in East 14.0 mph 23.0 mph 27 % 0.00 in 0.00 W/m2
05:24 50.4 °F 10.9 °F 30.31 in East 7.0 mph 26.0 mph 20 % 0.00 in 0.00 W/m2
05:29 51.2 °F 15.7 °F 30.31 in NE 12.0 mph 25.0 mph 24 % 0.00 in 0.00 W/m2
05:34 51.7 °F 17.0 °F 30.31 in NE 2.0 mph 20.0 mph 25 % 0.00 in 0.00 W/m2
05:39 51.7 °F 15.1 °F 30.31 in Calm   18.0 mph 23 % 0.00 in 0.00 W/m2
05:44 51.5 °F 19.5 °F 30.31 in Calm   23.0 mph 28 % 0.00 in 0.00 W/m2
05:49 50.2 °F 21.5 °F 30.31 in NE 2.0 mph 5.0 mph 32 % 0.00 in 0.00 W/m2
05:54 49.2 °F 20.6 °F 30.31 in East 7.0 mph 28.0 mph 32 % 0.00 in 0.00 W/m2
06:04 48.0 °F 20.3 °F 30.30 in Calm   25.0 mph 33 % 0.00 in 0.00 W/m2
06:09 47.3 °F 20.4 °F 30.31 in East 14.0 mph 15.0 mph 34 % 0.00 in 0.00 W/m2
06:14 46.6 °F 21.1 °F 30.31 in East 13.0 mph 15.0 mph 36 % 0.00 in 0.00 W/m2
06:19 46.0 °F 19.9 °F 30.31 in ENE 6.0 mph 15.0 mph 35 % 0.00 in 0.00 W/m2
06:24 45.4 °F 19.4 °F 30.31 in East 5.0 mph 18.0 mph 35 % 0.00 in 0.00 W/m2
06:29 44.9 °F 20.2 °F 30.31 in Calm   14.0 mph 37 % 0.00 in 0.00 W/m2
06:34 44.4 °F 21.0 °F 30.31 in ESE 6.0 mph 13.0 mph 39 % 0.00 in 0.00 W/m2
06:39 43.8 °F 21.1 °F 30.31 in Calm   18.0 mph 40 % 0.00 in 0.00 W/m2
06:44 43.4 °F 20.7 °F 30.31 in East 8.0 mph 15.0 mph 40 % 0.00 in 0.00 W/m2
06:49 42.9 °F 20.8 °F 30.31 in East 7.0 mph 19.0 mph 41 % 0.00 in 0.00 W/m2
06:54 42.6 °F 20.6 °F 30.31 in SE 9.0 mph 16.0 mph 41 % 0.00 in 0.00 W/m2
06:59 42.4 °F 19.8 °F 30.31 in ESE 5.0 mph 17.0 mph 40 % 0.00 in 0.00 W/m2
07:04 42.3 °F 19.7 °F 30.31 in ESE 6.0 mph 20.0 mph 40 % 0.00 in 5.00 W/m2
07:09 42.2 °F 19.6 °F 30.31 in Calm   21.0 mph 40 % 0.00 in 7.00 W/m2
07:14 42.2 °F 20.2 °F 30.31 in East 6.0 mph 19.0 mph 41 % 0.00 in 9.00 W/m2
07:19 42.2 °F 19.0 °F 30.31 in Calm   16.0 mph 39 % 0.00 in 12.00 W/m2
07:24 42.3 °F 20.3 °F 30.31 in ESE 7.0 mph 18.0 mph 41 % 0.00 in 14.00 W/m2
07:29 42.3 °F 20.9 °F 30.31 in ESE 6.0 mph 15.0 mph 42 % 0.00 in 18.00 W/m2
07:34 42.4 °F 21.0 °F 30.31 in ESE 2.0 mph 18.0 mph 42 % 0.00 in 25.00 W/m2
07:39 42.6 °F 18.8 °F 30.31 in East 4.0 mph 19.0 mph 38 % 0.00 in 32.00 W/m2
07:45 42.9 °F 19.1 °F 30.31 in ESE 20.0 mph 21.0 mph 38 % 0.00 in 37.00 W/m2
07:50 43.4 °F 19.5 °F 30.32 in ESE 1.0 mph 1.0 mph 38 % 0.00 in 65.00 W/m2
07:55 43.9 °F 18.0 °F 30.32 in SSE 15.0 mph 21.0 mph 35 % 0.00 in 76.00 W/m2
08:00 44.4 °F 19.8 °F 30.31 in ESE 15.0 mph 15.0 mph 37 % 0.00 in 91.00 W/m2
08:05 44.8 °F 20.1 °F 30.31 in East 13.0 mph 19.0 mph 37 % 0.00 in 111.00 W/m2
08:10 45.0 °F 19.0 °F 30.31 in East 10.0 mph 18.0 mph 35 % 0.00 in 125.00 W/m2
08:16 45.2 °F 22.3 °F 30.32 in ENE 5.0 mph 7.0 mph 40 % 0.00 in 142.00 W/m2
08:21 45.2 °F 21.1 °F 30.32 in Calm   1.0 mph 38 % 0.00 in 162.00 W/m2
08:26 45.4 °F 21.9 °F 30.32 in ESE 6.0 mph 16.0 mph 39 % 0.00 in 162.00 W/m2
08:31 46.3 °F 18.8 °F 30.32 in ESE 12.0 mph 17.0 mph 33 % 0.00 in 197.00 W/m2
08:36 47.1 °F 19.5 °F 30.32 in East 7.0 mph 14.0 mph 33 % 0.00 in 209.00 W/m2
08:41 47.9 °F 17.2 °F 30.32 in SE 7.0 mph 16.0 mph 29 % 0.00 in 214.00 W/m2
08:46 48.6 °F 16.1 °F 30.33 in East 8.0 mph 14.0 mph 27 % 0.00 in 246.00 W/m2
08:51 49.2 °F 16.7 °F 30.33 in East 5.0 mph 16.0 mph 27 % 0.00 in 264.00 W/m2
08:56 49.8 °F 16.3 °F 30.33 in Calm   8.0 mph 26 % 0.00 in 283.00 W/m2
09:01 50.3 °F 17.6 °F 30.33 in East 11.0 mph 15.0 mph 27 % 0.00 in 299.00 W/m2
09:06 50.6 °F 18.7 °F 30.33 in ESE 9.0 mph 23.0 mph 28 % 0.00 in 315.00 W/m2
09:07 50.6 °F 18.7 °F 30.33 in East 10.0 mph 23.0 mph 28 % 0.00 in 313.00 W/m2
09:12 50.9 °F 19.0 °F 30.33 in Calm   15.0 mph 28 % 0.00 in 322.00 W/m2
09:16 51.3 °F 18.5 °F 30.33 in ENE 3.0 mph 14.0 mph 27 % 0.00 in 339.00 W/m2
09:22 51.6 °F 19.6 °F 30.33 in ESE 1.0 mph 2.0 mph 28 % 0.00 in 352.00 W/m2
09:27 52.0 °F 19.1 °F 30.33 in East 12.0 mph 23.0 mph 27 % 0.00 in 360.00 W/m2
09:32 52.3 °F 20.2 °F 30.33 in Calm   14.0 mph 28 % 0.00 in 369.00 W/m2
09:37 52.6 °F 18.7 °F 30.33 in ENE 7.0 mph 15.0 mph 26 % 0.00 in 385.00 W/m2
09:42 53.0 °F 19.0 °F 30.33 in East 11.0 mph 18.0 mph 26 % 0.00 in 396.00 W/m2
09:47 53.5 °F 19.5 °F 30.33 in East 1.0 mph 7.0 mph 26 % 0.00 in 406.00 W/m2
09:52 53.9 °F 18.0 °F 30.33 in East 1.0 mph 2.0 mph 24 % 0.00 in 417.00 W/m2
09:57 54.1 °F 22.6 °F 30.33 in East 12.0 mph 19.0 mph 29 % 0.00 in 424.00 W/m2
10:02 54.2 °F 22.6 °F 30.33 in ENE 1.0 mph 4.0 mph 29 % 0.00 in 434.00 W/m2
10:07 54.1 °F 22.6 °F 30.34 in Calm   2.0 mph 29 % 0.00 in 443.00 W/m2
10:12 54.0 °F 21.6 °F 30.34 in Calm   4.0 mph 28 % 0.00 in 450.00 W/m2
10:17 54.1 °F 21.7 °F 30.34 in Calm   1.0 mph 28 % 0.00 in 457.00 W/m2
10:22 54.3 °F 21.9 °F 30.34 in Calm   1.0 mph 28 % 0.00 in 464.00 W/m2
10:27 54.3 °F 25.1 °F 30.34 in Calm     32 % 0.00 in 471.00 W/m2
10:32 54.4 °F 28.0 °F 30.33 in Calm   3.0 mph 36 % 0.00 in 476.00 W/m2
10:37 54.5 °F 26.0 °F 30.33 in Calm   1.0 mph 33 % 0.00 in 482.00 W/m2
10:42 54.6 °F 26.1 °F 30.33 in Calm     33 % 0.00 in 489.00 W/m2
10:47 54.6 °F 25.4 °F 30.33 in Calm   2.0 mph 32 % 0.00 in 494.00 W/m2
10:52 54.8 °F 24.8 °F 30.33 in Calm   1.0 mph 31 % 0.00 in 497.00 W/m2
10:57 55.0 °F 25.7 °F 30.32 in East 2.0 mph 3.0 mph 32 % 0.00 in 501.00 W/m2
11:02 55.2 °F 25.9 °F 30.32 in Calm   1.0 mph 32 % 0.00 in 506.00 W/m2
11:04 55.3 °F 26.0 °F 30.32 in Calm   4.0 mph 32 % 0.00 in 508.00 W/m2
11:09 55.7 °F 27.1 °F 30.32 in NE 3.0 mph 6.0 mph 33 % 0.00 in 513.00 W/m2
11:14 56.0 °F 27.3 °F 30.31 in Calm   3.0 mph 33 % 0.00 in 515.00 W/m2
11:19 56.4 °F 26.9 °F 30.31 in Calm   3.0 mph 32 % 0.00 in 517.00 W/m2
11:24 56.8 °F 28.8 °F 30.31 in NNE 1.0 mph 2.0 mph 34 % 0.00 in 522.00 W/m2
11:29 57.0 °F 30.3 °F 30.31 in NNE 2.0 mph 2.0 mph 36 % 0.00 in 522.00 W/m2
11:34 57.3 °F 24.5 °F 30.30 in Calm   2.0 mph 28 % 0.00 in 524.00 W/m2
11:39 57.7 °F 30.3 °F 30.30 in North 1.0 mph 1.0 mph 35 % 0.00 in 526.00 W/m2
11:44 57.8 °F 27.4 °F 30.29 in NNE 4.0 mph 5.0 mph 31 % 0.00 in 529.00 W/m2
11:49 58.0 °F 28.3 °F 30.29 in Calm   2.0 mph 32 % 0.00 in 524.00 W/m2
11:54 58.1 °F 29.9 °F 30.29 in Calm   2.0 mph 34 % 0.00 in 524.00 W/m2
12:00 58.3 °F 29.3 °F 30.29 in NNE 1.0 mph 6.0 mph 33 % 0.00 in 526.00 W/m2
12:05 58.7 °F 26.5 °F 30.29 in Calm   7.0 mph 29 % 0.00 in 526.00 W/m2
12:10 59.1 °F 32.2 °F 30.29 in East 1.0 mph 7.0 mph 36 % 0.00 in 520.00 W/m2
12:15 59.1 °F 29.3 °F 30.28 in Calm   1.0 mph 32 % 0.00 in 520.00 W/m2
12:20 59.4 °F 27.2 °F 30.29 in Calm   7.0 mph 29 % 0.00 in 519.00 W/m2
12:25 59.6 °F 26.5 °F 30.28 in Calm     28 % 0.00 in 513.00 W/m2
12:30 59.8 °F 28.3 °F 30.28 in Calm   1.0 mph 30 % 0.00 in 510.00 W/m2
12:35 59.9 °F 29.2 °F 30.28 in NE 1.0 mph 4.0 mph 31 % 0.00 in 508.00 W/m2
12:40 60.0 °F 30.8 °F 30.28 in Calm   6.0 mph 33 % 0.00 in 508.00 W/m2
12:45 60.2 °F 27.0 °F 30.28 in Calm   4.0 mph 28 % 0.00 in 504.00 W/m2
12:50 60.3 °F 24.4 °F 30.27 in Calm   9.0 mph 25 % 0.00 in 497.00 W/m2
12:55 60.5 °F 26.4 °F 30.27 in Calm   6.0 mph 27 % 0.00 in 494.00 W/m2
13:00 60.6 °F 26.5 °F 30.27 in ENE 2.0 mph 3.0 mph 27 % 0.00 in 487.00 W/m2
13:05 60.7 °F 29.1 °F 30.27 in Calm   5.0 mph 30 % 0.00 in 480.00 W/m2
13:10 60.7 °F 29.9 °F 30.27 in Calm     31 % 0.00 in 473.00 W/m2
13:15 60.5 °F 28.9 °F 30.27 in Calm   2.0 mph 30 % 0.00 in 469.00 W/m2
13:20 60.5 °F 25.5 °F 30.27 in Calm     26 % 0.00 in 462.00 W/m2
13:30 61.0 °F 28.5 °F 30.27 in Calm     29 % 0.00 in 446.00 W/m2
13:35 60.9 °F 28.5 °F 30.26 in Calm   1.0 mph 29 % 0.00 in 438.00 W/m2
13:40 60.9 °F 26.7 °F 30.26 in Calm   3.0 mph 27 % 0.00 in 432.00 W/m2
13:45 61.3 °F 27.1 °F 30.26 in Calm   2.0 mph 27 % 0.00 in 422.00 W/m2
13:50 61.3 °F 28.8 °F 30.26 in Calm   2.0 mph 29 % 0.00 in 411.00 W/m2
13:55 61.0 °F 33.9 °F 30.26 in Calm   2.0 mph 36 % 0.00 in 404.00 W/m2
14:05 60.1 °F 33.8 °F 30.26 in Calm     37 % 0.00 in 383.00 W/m2
14:10 59.7 °F 34.1 °F 30.26 in Calm     38 % 0.00 in 373.00 W/m2
14:15 59.3 °F 36.2 °F 30.26 in Calm   2.0 mph 42 % 0.00 in 362.00 W/m2
14:20 58.9 °F 35.9 °F 30.26 in North 1.0 mph 1.0 mph 42 % 0.00 in 350.00 W/m2
14:25 58.5 °F 35.5 °F 30.26 in Calm   2.0 mph 42 % 0.00 in 339.00 W/m2
14:30 58.4 °F 36.6 °F 30.26 in Calm     44 % 0.00 in 329.00 W/m2
14:35 58.1 °F 36.3 °F 30.26 in Calm     44 % 0.00 in 318.00 W/m2
14:40 57.8 °F 38.3 °F 30.26 in Calm     48 % 0.00 in 306.00 W/m2
14:45 57.6 °F 38.6 °F 30.25 in Calm     49 % 0.00 in 294.00 W/m2
14:50 57.4 °F 37.3 °F 30.25 in Calm     47 % 0.00 in 281.00 W/m2
14:55 57.3 °F 36.7 °F 30.25 in Calm     46 % 0.00 in 267.00 W/m2
15:00 57.1 °F 38.7 °F 30.25 in Calm     50 % 0.00 in 253.00 W/m2
15:05 56.9 °F 39.0 °F 30.25 in Calm     51 % 0.00 in 237.00 W/m2
15:10 56.7 °F 39.3 °F 30.25 in Calm     52 % 0.00 in 218.00 W/m2
15:15 56.4 °F 40.0 °F 30.25 in Calm     54 % 0.00 in 204.00 W/m2
15:20 56.2 °F 40.3 °F 30.25 in Calm     55 % 0.00 in 186.00 W/m2
15:25 55.9 °F 40.5 °F 30.25 in Calm     56 % 0.00 in 169.00 W/m2
15:30 55.4 °F 40.4 °F 30.25 in Calm     57 % 0.00 in 151.00 W/m2
15:40 54.6 °F 39.7 °F 30.25 in Calm     57 % 0.00 in 114.00 W/m2
15:45 54.3 °F 40.3 °F 30.25 in Calm     59 % 0.00 in 98.00 W/m2
15:50 54.0 °F 39.1 °F 30.25 in Calm     57 % 0.00 in 84.00 W/m2
15:55 53.7 °F 39.7 °F 30.25 in Calm     59 % 0.00 in 70.00 W/m2
16:00 53.3 °F 39.3 °F 30.25 in Calm     59 % 0.00 in 56.00 W/m2
16:05 52.8 °F 39.3 °F 30.25 in Calm     60 % 0.00 in 44.00 W/m2
16:10 52.5 °F 38.6 °F 30.25 in Calm     59 % 0.00 in 33.00 W/m2
16:16 52.1 °F 38.7 °F 30.25 in Calm     60 % 0.00 in 23.00 W/m2
16:21 51.7 °F 37.8 °F 30.25 in Calm     59 % 0.00 in 16.00 W/m2
16:26 51.4 °F 38.0 °F 30.24 in Calm     60 % 0.00 in 12.00 W/m2
16:31 51.1 °F 38.5 °F 30.24 in Calm     62 % 0.00 in 11.00 W/m2
16:36 50.8 °F 38.3 °F 30.24 in Calm     62 % 0.00 in 9.00 W/m2
16:41 50.6 °F 38.1 °F 30.24 in Calm     62 % 0.00 in 7.00 W/m2
16:46 50.4 °F 37.9 °F 30.24 in Calm     62 % 0.00 in 5.00 W/m2
16:51 50.2 °F 38.1 °F 30.24 in Calm     63 % 0.00 in 0.00 W/m2
16:56 50.0 °F 37.9 °F 30.24 in Calm     63 % 0.00 in 0.00 W/m2
17:01 49.9 °F 38.2 °F 30.24 in Calm     64 % 0.00 in 0.00 W/m2
17:06 49.7 °F 38.4 °F 30.25 in Calm     65 % 0.00 in 0.00 W/m2
17:11 49.4 °F 38.5 °F 30.25 in Calm     66 % 0.00 in 0.00 W/m2
17:16 49.1 °F 38.2 °F 30.25 in Calm     66 % 0.00 in 0.00 W/m2
17:21 48.8 °F 38.3 °F 30.25 in Calm     67 % 0.00 in 0.00 W/m2
17:26 48.6 °F 38.2 °F 30.25 in Calm     67 % 0.00 in 0.00 W/m2
17:31 48.4 °F 38.0 °F 30.25 in Calm     67 % 0.00 in 0.00 W/m2
17:36 48.0 °F 37.6 °F 30.25 in Calm     67 % 0.00 in 0.00 W/m2
17:41 47.7 °F 37.7 °F 30.25 in Calm     68 % 0.00 in 0.00 W/m2
17:46 47.5 °F 37.1 °F 30.25 in Calm     67 % 0.00 in 0.00 W/m2
17:51 47.3 °F 36.5 °F 30.25 in Calm     66 % 0.00 in 0.00 W/m2
17:56 47.1 °F 36.3 °F 30.26 in Calm     66 % 0.00 in 0.00 W/m2
18:01 47.0 °F 36.6 °F 30.26 in Calm     67 % 0.00 in 0.00 W/m2
18:06 46.9 °F 36.2 °F 30.26 in Calm     66 % 0.00 in 0.00 W/m2
18:11 46.7 °F 36.3 °F 30.26 in Calm     67 % 0.00 in 0.00 W/m2
18:16 46.6 °F 35.9 °F 30.26 in Calm     66 % 0.00 in 0.00 W/m2
18:21 46.4 °F 35.7 °F 30.26 in Calm     66 % 0.00 in 0.00 W/m2
18:26 46.2 °F 35.5 °F 30.26 in Calm     66 % 0.00 in 0.00 W/m2
18:31 46.1 °F 35.4 °F 30.26 in Calm     66 % 0.00 in 0.00 W/m2
18:36 45.8 °F 35.1 °F 30.26 in Calm     66 % 0.00 in 0.00 W/m2
18:41 45.7 °F 35.4 °F 30.26 in Calm     67 % 0.00 in 0.00 W/m2
18:46 45.6 °F 35.3 °F 30.26 in Calm     67 % 0.00 in 0.00 W/m2
18:51 45.8 °F 35.5 °F 30.26 in Calm     67 % 0.00 in 0.00 W/m2
18:56 45.9 °F 34.0 °F 30.26 in Calm     63 % 0.00 in 0.00 W/m2
19:01 46.0 °F 34.9 °F 30.26 in Calm     65 % 0.00 in 0.00 W/m2
19:06 46.1 °F 35.0 °F 30.26 in Calm     65 % 0.00 in 0.00 W/m2
19:07 46.1 °F 34.6 °F 30.26 in Calm     64 % 0.00 in 0.00 W/m2
19:12 46.1 °F 33.8 °F 30.26 in Calm     62 % 0.00 in 0.00 W/m2
19:17 46.1 °F 34.2 °F 30.26 in Calm     63 % 0.00 in 0.00 W/m2
19:18 46.1 °F 34.6 °F 30.26 in Calm     64 % 0.00 in 0.00 W/m2
19:23 46.0 °F 30.3 °F 30.26 in Calm     54 % 0.00 in 0.00 W/m2
19:28 45.8 °F 30.6 °F 30.26 in Calm     55 % 0.00 in 0.00 W/m2
19:33 45.8 °F 31.0 °F 30.26 in Calm     56 % 0.00 in 0.00 W/m2
19:38 45.7 °F 31.4 °F 30.27 in Calm     57 % 0.00 in 0.00 W/m2
19:43 45.6 °F 30.4 °F 30.27 in Calm     55 % 0.00 in 0.00 W/m2
19:48 45.4 °F 31.1 °F 30.27 in Calm     57 % 0.00 in 0.00 W/m2
19:53 45.4 °F 30.6 °F 30.27 in Calm     56 % 0.00 in 0.00 W/m2
19:58 45.3 °F 31.4 °F 30.27 in Calm     58 % 0.00 in 0.00 W/m2
20:03 45.3 °F 32.7 °F 30.27 in Calm     61 % 0.00 in 0.00 W/m2
20:08 45.4 °F 32.3 °F 30.27 in Calm     60 % 0.00 in 0.00 W/m2
20:13 45.3 °F 31.4 °F 30.27 in Calm     58 % 0.00 in 0.00 W/m2
20:18 45.4 °F 30.6 °F 30.27 in Calm     56 % 0.00 in 0.00 W/m2
20:28 45.4 °F 29.7 °F 30.27 in Calm     54 % 0.00 in 0.00 W/m2
20:33 45.4 °F 27.9 °F 30.27 in Calm     50 % 0.00 in 0.00 W/m2
20:38 45.5 °F 24.9 °F 30.27 in Calm     44 % 0.00 in 0.00 W/m2
20:43 45.7 °F 26.6 °F 30.27 in Calm     47 % 0.00 in 0.00 W/m2
20:48 45.7 °F 25.6 °F 30.27 in Calm     45 % 0.00 in 0.00 W/m2
20:53 45.7 °F 25.0 °F 30.27 in Calm     44 % 0.00 in 0.00 W/m2
20:58 45.7 °F 24.5 °F 30.28 in Calm     43 % 0.00 in 0.00 W/m2
21:03 45.7 °F 25.0 °F 30.28 in Calm     44 % 0.00 in 0.00 W/m2
21:08 45.6 °F 24.4 °F 30.28 in Calm     43 % 0.00 in 0.00 W/m2
21:13 45.6 °F 26.0 °F 30.28 in Calm     46 % 0.00 in 0.00 W/m2
21:18 45.6 °F 23.9 °F 30.28 in Calm     42 % 0.00 in 0.00 W/m2
21:23 45.5 °F 24.9 °F 30.28 in Calm     44 % 0.00 in 0.00 W/m2
21:29 45.5 °F 27.0 °F 30.28 in Calm     48 % 0.00 in 0.00 W/m2
21:34 45.4 °F 27.4 °F 30.28 in Calm     49 % 0.00 in 0.00 W/m2
21:39 45.2 °F 27.2 °F 30.28 in Calm     49 % 0.00 in 0.00 W/m2
21:49 44.7 °F 27.2 °F 30.29 in Calm     50 % 0.00 in 0.00 W/m2
21:54 44.5 °F 27.5 °F 30.29 in Calm     51 % 0.00 in 0.00 W/m2
21:59 44.0 °F 25.6 °F 30.29 in Calm     48 % 0.00 in 0.00 W/m2
22:04 43.8 °F 26.9 °F 30.29 in Calm     51 % 0.00 in 0.00 W/m2
22:09 43.5 °F 26.6 °F 30.29 in Calm     51 % 0.00 in 0.00 W/m2
22:14 43.2 °F 27.2 °F 30.29 in Calm     53 % 0.00 in 0.00 W/m2
22:19 42.9 °F 28.7 °F 30.30 in Calm     57 % 0.00 in 0.00 W/m2
22:24 42.6 °F 28.0 °F 30.30 in Calm     56 % 0.00 in 0.00 W/m2
22:29 42.3 °F 28.6 °F 30.30 in Calm     58 % 0.00 in 0.00 W/m2
22:34 42.0 °F 28.7 °F 30.30 in Calm     59 % 0.00 in 0.00 W/m2
22:39 41.9 °F 29.9 °F 30.30 in Calm     62 % 0.00 in 0.00 W/m2
22:44 41.8 °F 30.5 °F 30.30 in Calm     64 % 0.00 in 0.00 W/m2
22:49 41.7 °F 31.6 °F 30.30 in Calm     67 % 0.00 in 0.00 W/m2
22:54 41.6 °F 31.8 °F 30.31 in Calm     68 % 0.00 in 0.00 W/m2
22:59 41.5 °F 31.7 °F 30.31 in Calm     68 % 0.00 in 0.00 W/m2
23:04 41.5 °F 32.1 °F 30.31 in Calm     69 % 0.00 in 0.00 W/m2
23:09 41.4 °F 32.4 °F 30.31 in Calm     70 % 0.00 in 0.00 W/m2
23:14 41.4 °F 32.7 °F 30.31 in Calm     71 % 0.00 in 0.00 W/m2
23:19 41.3 °F 33.0 °F 30.31 in Calm     72 % 0.00 in 0.00 W/m2
23:24 41.3 °F 33.0 °F 30.31 in Calm     72 % 0.00 in 0.00 W/m2
23:29 41.3 °F 33.0 °F 30.31 in Calm     72 % 0.00 in 0.00 W/m2
23:34 41.1 °F 32.8 °F 30.31 in Calm     72 % 0.00 in 0.00 W/m2
23:39 41.0 °F 33.0 °F 30.31 in Calm     73 % 0.00 in 0.00 W/m2
23:44 41.0 °F 32.7 °F 30.31 in Calm     72 % 0.00 in 0.00 W/m2
23:49 40.8 °F 32.1 °F 30.31 in Calm     71 % 0.00 in 0.00 W/m2
23:54 40.7 °F 32.4 °F 30.31 in Calm     72 % 0.00 in 0.00 W/m2
23:59 40.6 °F 32.0 °F 30.31 in Calm     71 % 0.00 in 0.00 W/m2
Juneau County Weather
Compliments of Weather Underground - 4.5 mb
 WU-history PHP script courtesy of   Juneau County Weather.
powered by Cumulus v1.9.3 (1059)
Ambient Weather VWS v14.00
Top Contact Website Map Copyright © 2007 - 2018 Foresthillweather.com Never base important decisions on this or any weather information obtained from the Internet